createdAt,value
2022-08-30T00:01:03.622Z,7.40
2022-08-30T00:03:33.847Z,6.13
2022-08-30T00:06:01.256Z,3.17
2022-08-30T00:08:28.073Z,2.92
2022-08-30T00:10:55.279Z,3.92
2022-08-30T00:13:23.294Z,11.18
2022-08-30T00:15:50.408Z,12.80
2022-08-30T00:18:18.502Z,11.68
2022-08-30T00:20:47.336Z,10.73
2022-08-30T00:23:14.651Z,9.73
2022-08-30T00:25:41.940Z,10.95
2022-08-30T00:28:09.731Z,8.30
2022-08-30T00:30:37.140Z,7.43
2022-08-30T00:33:04.178Z,7.35
2022-08-30T00:35:31.037Z,8.57
2022-08-30T00:37:58.109Z,7.07
2022-08-30T00:40:27.781Z,6.70
2022-08-30T00:42:59.418Z,6.70
2022-08-30T00:45:32.903Z,6.20
2022-08-30T00:48:00.454Z,6.35
2022-08-30T00:50:36.239Z,6.97
2022-08-30T00:53:06.489Z,5.90
2022-08-30T00:55:33.522Z,5.97
2022-08-30T00:58:04.235Z,7.07
2022-08-30T01:00:32.056Z,5.75
2022-08-30T01:02:59.087Z,4.68
2022-08-30T01:05:25.970Z,5.70
2022-08-30T01:07:53.115Z,5.32
2022-08-30T01:10:20.035Z,5.75
2022-08-30T01:12:47.338Z,4.72
2022-08-30T01:15:15.919Z,5.53
2022-08-30T01:17:44.511Z,4.95
2022-08-30T01:20:16.104Z,5.28
2022-08-30T01:22:50.239Z,7.25
2022-08-30T01:25:24.706Z,4.90
2022-08-30T01:27:57.127Z,4.78
2022-08-30T01:30:24.423Z,5.15
2022-08-30T01:33:00.969Z,4.72
2022-08-30T01:35:29.516Z,4.43
2022-08-30T01:37:56.504Z,3.83
2022-08-30T01:40:23.362Z,4.65
2022-08-30T01:42:50.290Z,4.07
2022-08-30T01:45:17.155Z,3.95
2022-08-30T01:47:44.015Z,4.28
2022-08-30T01:50:11.359Z,4.13
2022-08-30T01:52:38.621Z,4.60
2022-08-30T01:55:06.860Z,4.03
2022-08-30T01:57:33.672Z,4.03
2022-08-30T02:00:00.503Z,4.07
2022-08-30T02:02:29.615Z,3.90
2022-08-30T02:04:57.395Z,4.60
2022-08-30T02:07:25.800Z,4.18
2022-08-30T02:09:53.842Z,3.60
2022-08-30T02:12:21.280Z,4.45
2022-08-30T02:14:48.136Z,4.40
2022-08-30T02:17:16.191Z,3.65
2022-08-30T02:19:43.301Z,4.70
2022-08-30T02:22:10.211Z,3.85
2022-08-30T02:24:37.444Z,3.63
2022-08-30T02:27:05.004Z,4.00
2022-08-30T02:29:32.439Z,3.40
2022-08-30T02:31:59.652Z,4.22
2022-08-30T02:34:26.680Z,5.53
2022-08-30T02:36:53.427Z,4.30
2022-08-30T02:39:20.295Z,3.30
2022-08-30T02:41:47.180Z,3.13
2022-08-30T02:44:15.424Z,4.43
2022-08-30T02:46:42.354Z,4.13
2022-08-30T02:49:30.296Z,4.00
2022-08-30T02:51:56.215Z,3.70
2022-08-30T02:54:23.022Z,3.75
2022-08-30T02:56:50.240Z,3.20
2022-08-30T02:59:18.284Z,3.88
2022-08-30T03:01:45.257Z,3.45
2022-08-30T03:04:12.101Z,3.75
2022-08-30T03:06:38.871Z,3.28
2022-08-30T03:09:06.087Z,2.65
2022-08-30T03:11:32.903Z,3.50
2022-08-30T03:13:59.852Z,2.90
2022-08-30T03:16:26.753Z,3.28
2022-08-30T03:18:53.538Z,3.30
2022-08-30T03:21:20.368Z,2.80
2022-08-30T03:23:47.161Z,4.30
2022-08-30T03:26:14.954Z,5.53
2022-08-30T03:28:42.626Z,4.95
2022-08-30T03:31:10.100Z,3.75
2022-08-30T03:33:39.947Z,3.10
2022-08-30T03:36:08.103Z,3.80
2022-08-30T03:38:35.199Z,4.15
2022-08-30T03:41:02.005Z,3.67
2022-08-30T03:43:28.896Z,2.80
2022-08-30T03:45:56.747Z,3.17
2022-08-30T03:48:23.797Z,3.95
2022-08-30T03:50:50.544Z,2.30
2022-08-30T03:53:17.409Z,2.88
2022-08-30T03:55:44.509Z,3.22
2022-08-30T03:58:11.688Z,2.80
2022-08-30T04:00:38.590Z,3.90
2022-08-30T04:03:05.597Z,3.25
2022-08-30T04:05:32.498Z,2.97
2022-08-30T04:07:59.807Z,3.20
2022-08-30T04:10:26.670Z,2.40
2022-08-30T04:12:53.827Z,3.42
2022-08-30T04:15:20.708Z,3.80
2022-08-30T04:17:47.856Z,3.50
2022-08-30T04:20:15.124Z,3.05
2022-08-30T04:22:42.540Z,2.58
2022-08-30T04:25:15.263Z,2.85
2022-08-30T04:27:43.243Z,2.85
2022-08-30T04:30:10.690Z,3.60
2022-08-30T04:32:38.344Z,4.55
2022-08-30T04:35:05.879Z,4.38
2022-08-30T04:37:32.785Z,3.13
2022-08-30T04:40:02.531Z,3.50
2022-08-30T04:42:32.347Z,5.07
2022-08-30T04:45:01.584Z,4.03
2022-08-30T04:47:28.780Z,4.07
2022-08-30T04:49:55.655Z,3.38
2022-08-30T04:52:22.933Z,2.90
2022-08-30T04:54:55.693Z,2.80
2022-08-30T04:57:23.299Z,2.83
2022-08-30T04:59:50.238Z,3.33
2022-08-30T05:02:17.771Z,4.60
2022-08-30T05:05:03.193Z,2.60
2022-08-30T05:07:30.952Z,4.80
2022-08-30T05:09:58.112Z,3.78
2022-08-30T05:12:25.004Z,3.28
2022-08-30T05:14:52.092Z,2.92
2022-08-30T05:17:18.973Z,4.63
2022-08-30T05:19:45.788Z,5.10
2022-08-30T05:22:12.635Z,5.40
2022-08-30T05:24:39.407Z,2.60
2022-08-30T05:27:06.359Z,4.57
2022-08-30T05:29:33.557Z,3.65
2022-08-30T05:32:00.524Z,2.47
2022-08-30T05:34:30.237Z,3.22
2022-08-30T05:36:57.125Z,4.65
2022-08-30T05:39:23.921Z,2.80
2022-08-30T05:41:50.764Z,3.53
2022-08-30T05:44:17.590Z,3.38
2022-08-30T05:46:46.274Z,6.65
2022-08-30T05:49:13.280Z,4.00
2022-08-30T05:51:41.095Z,4.75
2022-08-30T05:54:11.755Z,4.70
2022-08-30T05:56:41.054Z,7.18
2022-08-30T05:59:09.171Z,5.32
2022-08-30T06:01:39.875Z,2.78
2022-08-30T06:04:08.566Z,5.00
2022-08-30T06:06:37.356Z,3.13
2022-08-30T06:09:05.980Z,5.95
2022-08-30T06:11:33.441Z,4.55
2022-08-30T06:14:00.679Z,5.53
2022-08-30T06:16:28.225Z,6.53
2022-08-30T06:18:56.688Z,4.88
2022-08-30T06:21:30.019Z,5.40
2022-08-30T06:23:57.873Z,4.00
2022-08-30T06:26:25.650Z,7.63
2022-08-30T06:28:52.650Z,5.90
2022-08-30T06:31:21.547Z,7.07
2022-08-30T06:33:48.756Z,8.70
2022-08-30T06:36:19.105Z,10.65
2022-08-30T06:38:46.906Z,7.82
2022-08-30T06:41:16.063Z,6.07
2022-08-30T06:43:48.610Z,11.40
2022-08-30T06:46:21.186Z,6.78
2022-08-30T06:48:48.799Z,9.20
2022-08-30T06:51:19.425Z,5.03
2022-08-30T06:53:46.196Z,5.72
2022-08-30T06:56:16.415Z,5.30
2022-08-30T06:58:43.823Z,5.13
2022-08-30T07:01:16.535Z,11.45
2022-08-30T07:03:43.560Z,8.98
2022-08-30T07:06:11.053Z,6.85
2022-08-30T07:08:38.503Z,6.68
2022-08-30T07:11:07.475Z,7.93
2022-08-30T07:13:36.276Z,10.27
2022-08-30T07:16:10.861Z,6.13
2022-08-30T07:18:55.858Z,7.07
2022-08-30T07:21:27.310Z,5.90
2022-08-30T07:26:29.956Z,5.38
2022-08-30T07:28:57.285Z,8.77
2022-08-30T07:31:24.853Z,13.20
2022-08-30T07:33:52.266Z,14.30
2022-08-30T07:36:19.271Z,12.23
2022-08-30T07:38:46.778Z,9.38
2022-08-30T07:41:25.405Z,10.88
2022-08-30T07:43:52.759Z,9.98
2022-08-30T07:46:20.216Z,9.35
2022-08-30T07:48:47.164Z,10.82
2022-08-30T07:51:17.203Z,6.68
2022-08-30T07:53:44.132Z,10.52
2022-08-30T07:56:11.331Z,8.93
2022-08-30T07:58:38.236Z,12.43
2022-08-30T08:01:07.463Z,7.70
2022-08-30T08:03:35.332Z,6.03
2022-08-30T08:06:06.070Z,9.95
2022-08-30T08:08:33.376Z,5.00
2022-08-30T08:11:26.741Z,4.18
2022-08-30T08:13:55.203Z,6.10
2022-08-30T08:18:54.539Z,10.02
2022-08-30T08:21:23.175Z,4.70
2022-08-30T08:23:50.537Z,6.83
2022-08-30T08:26:18.342Z,7.07
2022-08-30T08:28:47.135Z,4.75
2022-08-30T08:31:19.416Z,6.47
2022-08-30T08:33:47.465Z,4.90
2022-08-30T08:36:14.671Z,4.57
2022-08-30T08:38:41.715Z,3.72
2022-08-30T08:41:32.334Z,5.03
2022-08-30T08:43:59.523Z,12.27
2022-08-30T08:46:39.754Z,6.90
2022-08-30T08:49:12.277Z,5.95
2022-08-30T08:51:58.763Z,8.65
2022-08-30T08:55:01.945Z,8.95
2022-08-30T08:57:34.287Z,8.77
2022-08-30T09:00:01.756Z,7.97
2022-08-30T09:02:34.605Z,4.47
2022-08-30T09:05:02.855Z,7.50
2022-08-30T09:07:40.636Z,6.28
2022-08-30T09:10:07.904Z,3.85
2022-08-30T09:12:34.801Z,6.18
2022-08-30T09:15:16.401Z,8.52
2022-08-30T09:17:49.858Z,6.72
2022-08-30T09:20:34.324Z,6.30
2022-08-30T09:23:19.106Z,4.80
2022-08-30T09:25:54.368Z,5.68
2022-08-30T09:28:29.811Z,4.70
2022-08-30T09:31:12.187Z,4.80
2022-08-30T09:33:39.419Z,4.47
2022-08-30T09:36:26.732Z,7.45
2022-08-30T09:39:14.300Z,4.65
2022-08-30T09:41:43.726Z,4.97
2022-08-30T09:46:49.779Z,6.03
2022-08-30T09:52:27.877Z,5.30
2022-08-30T09:55:08.071Z,3.35
2022-08-30T09:57:52.628Z,5.40
2022-08-30T10:00:22.105Z,4.93
2022-08-30T10:05:27.259Z,4.97
2022-08-30T10:08:09.950Z,7.93
2022-08-30T10:10:54.095Z,6.10
2022-08-30T10:16:58.970Z,7.05
2022-08-30T10:19:57.755Z,4.85
2022-08-30T10:22:46.561Z,5.40
2022-08-30T10:25:21.881Z,8.05
2022-08-30T10:27:58.604Z,5.57
2022-08-30T10:30:25.469Z,7.13
2022-08-30T10:33:09.408Z,5.75
2022-08-30T10:35:58.314Z,5.53
2022-08-30T10:38:29.925Z,4.28
2022-08-30T10:41:22.753Z,3.35
2022-08-30T10:43:54.607Z,3.50
2022-08-30T10:46:30.621Z,5.63
2022-08-30T10:51:47.428Z,6.03
2022-08-30T10:54:35.272Z,7.90
2022-08-30T10:57:02.590Z,6.35
2022-08-30T10:59:29.398Z,5.97
2022-08-30T11:02:15.551Z,4.25
2022-08-30T11:05:03.496Z,7.22
2022-08-30T11:07:48.674Z,8.80
2022-08-30T11:10:41.028Z,7.18
2022-08-30T11:13:21.208Z,5.32
2022-08-30T11:16:09.866Z,5.47
2022-08-30T11:18:51.149Z,6.28
2022-08-30T11:21:41.065Z,7.60
2022-08-30T11:24:13.944Z,4.72
2022-08-30T11:29:44.288Z,5.47
2022-08-30T11:34:47.425Z,6.50
2022-08-30T11:40:15.661Z,6.72
2022-08-30T11:42:51.159Z,7.50
2022-08-30T11:45:25.461Z,9.70
2022-08-30T11:47:56.918Z,7.35
2022-08-30T11:50:26.718Z,14.05
2022-08-30T11:53:08.644Z,4.57
2022-08-30T11:56:15.642Z,11.55
2022-08-30T11:58:58.331Z,2.97
2022-08-30T12:01:50.783Z,3.22
2022-08-30T12:04:17.521Z,6.07
2022-08-30T12:06:57.072Z,5.53
2022-08-30T12:09:23.835Z,3.83
2022-08-30T12:12:09.230Z,4.22
2022-08-30T12:17:50.767Z,4.75
2022-08-30T12:20:29.108Z,6.32
2022-08-30T12:22:56.618Z,4.05
2022-08-30T12:25:33.888Z,4.50
2022-08-30T12:28:14.132Z,4.30
2022-08-30T12:30:41.960Z,3.10
2022-08-30T12:33:14.181Z,3.72
2022-08-30T12:35:43.549Z,6.47
2022-08-30T12:38:18.878Z,7.57
2022-08-30T12:40:57.835Z,5.70
2022-08-30T12:43:49.133Z,4.38
2022-08-30T12:46:18.074Z,4.70
2022-08-30T12:48:45.449Z,4.38
2022-08-30T12:51:46.797Z,3.80
2022-08-30T12:54:29.566Z,4.05
2022-08-30T12:57:19.201Z,11.45
2022-08-30T12:59:56.830Z,3.85
2022-08-30T13:02:28.846Z,7.32
2022-08-30T13:04:56.530Z,6.05
2022-08-30T13:07:33.545Z,3.80
2022-08-30T13:12:41.160Z,4.00
2022-08-30T13:15:29.313Z,6.22
2022-08-30T13:18:27.666Z,4.75
2022-08-30T13:21:22.641Z,6.87
2022-08-30T13:23:50.921Z,3.47
2022-08-30T13:28:52.810Z,6.60
2022-08-30T13:31:20.800Z,4.75
2022-08-30T13:33:52.959Z,3.88
2022-08-30T13:36:29.438Z,6.70
2022-08-30T13:41:26.048Z,5.38
2022-08-30T13:44:14.208Z,7.65
2022-08-30T13:46:52.913Z,5.50
2022-08-30T13:52:20.429Z,6.05
2022-08-30T14:00:17.597Z,4.72
2022-08-30T14:02:51.586Z,6.22
2022-08-30T14:05:51.527Z,4.50
2022-08-30T14:08:45.252Z,7.40
2022-08-30T14:11:16.103Z,5.97
2022-08-30T14:16:35.203Z,4.53
2022-08-30T14:19:02.429Z,5.53
2022-08-30T14:21:29.416Z,4.18
2022-08-30T14:23:58.693Z,4.07
2022-08-30T14:31:26.498Z,5.35
2022-08-30T14:33:53.287Z,6.32
2022-08-30T14:36:20.169Z,6.82
2022-08-30T14:41:15.392Z,3.65
2022-08-30T14:43:42.231Z,5.85
2022-08-30T14:46:10.387Z,6.93
2022-08-30T14:48:38.354Z,7.80
2022-08-30T14:51:13.087Z,2.50
2022-08-30T14:53:40.028Z,7.07
2022-08-30T14:56:09.166Z,5.03
2022-08-30T14:58:35.934Z,5.75
2022-08-30T15:03:33.887Z,5.53
2022-08-30T15:06:01.417Z,6.03
2022-08-30T15:08:28.297Z,6.97
2022-08-30T15:10:57.178Z,5.75
2022-08-30T15:15:52.082Z,4.63
2022-08-30T15:18:19.703Z,3.90
2022-08-30T15:20:47.821Z,4.18
2022-08-30T15:23:16.995Z,2.63
2022-08-30T15:25:43.929Z,4.90
2022-08-30T15:28:10.735Z,6.60
2022-08-30T15:33:04.738Z,4.30
2022-08-30T15:35:31.881Z,6.95
2022-08-30T15:37:59.121Z,5.90
2022-08-30T15:42:54.262Z,4.55
2022-08-30T15:45:21.090Z,3.13
2022-08-30T15:47:47.901Z,6.55
2022-08-30T15:52:44.008Z,5.63
2022-08-30T15:55:10.944Z,3.42
2022-08-30T15:57:37.826Z,3.50
2022-08-30T16:00:07.840Z,5.03
2022-08-30T16:02:35.038Z,6.72
2022-08-30T16:09:56.491Z,5.65
2022-08-30T16:12:23.715Z,3.53
2022-08-30T16:17:19.005Z,6.72
2022-08-30T16:19:45.765Z,5.97
2022-08-30T16:22:12.599Z,7.63
2022-08-30T16:24:42.312Z,12.37
2022-08-30T16:27:13.562Z,21.95
2022-08-30T16:29:40.429Z,24.55
2022-08-30T16:32:07.366Z,21.88
2022-08-30T16:34:34.182Z,19.90
2022-08-30T16:39:28.397Z,19.80
2022-08-30T16:41:56.018Z,20.58
2022-08-30T16:44:23.587Z,19.88
2022-08-30T16:46:56.827Z,15.95
2022-08-30T16:49:24.860Z,14.35
2022-08-30T16:51:52.947Z,15.07
2022-08-30T16:54:19.877Z,14.07
2022-08-30T16:56:46.691Z,11.82
2022-08-30T16:59:14.505Z,16.75
2022-08-30T17:01:43.403Z,13.82
2022-08-30T17:04:13.006Z,10.27
2022-08-30T17:06:42.765Z,7.72
2022-08-30T17:09:10.617Z,9.63
2022-08-30T17:11:40.240Z,10.30
2022-08-30T17:14:07.708Z,8.37
2022-08-30T17:16:36.336Z,5.88
2022-08-30T17:19:05.089Z,4.65
2022-08-30T17:21:32.336Z,4.95
2022-08-30T17:26:47.867Z,6.00
2022-08-30T17:29:15.870Z,4.93
2022-08-30T17:31:46.253Z,4.38
2022-08-30T17:34:18.333Z,4.38
2022-08-30T17:36:45.499Z,6.07
2022-08-30T17:39:13.070Z,5.60
2022-08-30T17:41:49.169Z,4.95
2022-08-30T17:44:17.099Z,5.68
2022-08-30T17:46:45.082Z,5.40
2022-08-30T17:51:42.818Z,4.22
2022-08-30T17:54:12.030Z,4.90
2022-08-30T17:56:40.230Z,3.97
2022-08-30T18:01:55.537Z,4.22
2022-08-30T18:04:25.014Z,4.90
2022-08-30T18:09:19.861Z,2.95
2022-08-30T18:11:48.266Z,4.32
2022-08-30T18:14:16.350Z,3.77
2022-08-30T18:16:50.028Z,2.58
2022-08-30T18:19:25.066Z,3.78
2022-08-30T18:21:52.599Z,3.17
2022-08-30T18:24:20.202Z,2.70
2022-08-30T18:26:47.327Z,8.65
2022-08-30T18:29:18.959Z,4.00
2022-08-30T18:31:56.880Z,7.45
2022-08-30T18:34:23.735Z,5.78
2022-08-30T18:36:50.544Z,5.05
2022-08-30T18:39:17.471Z,3.90
2022-08-30T18:41:44.348Z,4.40
2022-08-30T18:44:27.300Z,9.63
2022-08-30T18:46:57.106Z,4.30
2022-08-30T18:49:25.329Z,3.20
2022-08-30T18:51:52.187Z,4.25
2022-08-30T18:54:19.268Z,2.92
2022-08-30T18:56:46.301Z,3.38
2022-08-30T18:59:13.187Z,7.70
2022-08-30T19:01:40.627Z,5.13
2022-08-30T19:04:07.902Z,4.78
2022-08-30T19:06:34.903Z,4.32
2022-08-30T19:09:09.107Z,3.20
2022-08-30T19:11:36.253Z,7.50
2022-08-30T19:14:05.640Z,3.80
2022-08-30T19:16:35.244Z,3.58
2022-08-30T19:19:02.963Z,3.58
2022-08-30T19:21:29.923Z,2.97
2022-08-30T19:23:56.735Z,3.13
2022-08-30T19:26:23.603Z,4.43
2022-08-30T19:28:54.271Z,2.40
2022-08-30T19:31:21.008Z,2.65
2022-08-30T19:33:47.862Z,2.03
2022-08-30T19:36:14.733Z,3.58
2022-08-30T19:38:44.322Z,4.85
2022-08-30T19:41:12.567Z,4.82
2022-08-30T19:43:40.030Z,4.97
2022-08-30T19:46:07.772Z,6.43
2022-08-30T19:48:42.285Z,3.40
2022-08-30T19:51:10.671Z,4.13
2022-08-30T19:53:38.040Z,4.40
2022-08-30T19:56:05.275Z,2.83
2022-08-30T19:58:32.492Z,3.22
2022-08-30T20:01:10.729Z,4.35
2022-08-30T20:03:47.147Z,4.90
2022-08-30T20:06:14.374Z,3.28
2022-08-30T20:08:42.140Z,6.82
2022-08-30T20:11:13.716Z,3.70
2022-08-30T20:13:40.479Z,6.93
2022-08-30T20:16:07.354Z,4.68
2022-08-30T20:18:36.508Z,2.60
2022-08-30T20:21:04.420Z,2.55
2022-08-30T20:23:41.939Z,4.00
2022-08-30T20:24:25.146Z,6.85
2022-08-30T20:24:26.858Z,4.85
2022-08-30T20:26:10.291Z,3.03
2022-08-30T20:28:37.906Z,3.38
2022-08-30T20:33:37.565Z,2.92
2022-08-30T20:36:06.365Z,4.15
2022-08-30T20:38:33.169Z,4.95
2022-08-30T20:41:01.100Z,4.57
2022-08-30T20:43:29.799Z,4.10
2022-08-30T20:45:57.080Z,3.53
2022-08-30T20:48:26.046Z,3.28
2022-08-30T20:50:52.886Z,4.35
2022-08-30T20:53:19.709Z,7.28
2022-08-30T20:55:47.587Z,3.60
2022-08-30T20:58:15.178Z,4.75
2022-08-30T21:00:45.677Z,2.83
2022-08-30T21:03:26.043Z,4.05
2022-08-30T21:05:55.023Z,3.20
2022-08-30T21:10:49.129Z,3.35
2022-08-30T21:13:15.952Z,3.40
2022-08-30T21:15:46.347Z,3.97
2022-08-30T21:18:14.415Z,4.60
2022-08-30T21:20:41.664Z,3.25
2022-08-30T21:23:08.782Z,2.75
2022-08-30T21:25:38.981Z,5.40
2022-08-30T21:28:06.550Z,3.60
2022-08-30T21:30:34.128Z,3.50
2022-08-30T21:33:03.957Z,3.00
2022-08-30T21:35:49.791Z,3.67
2022-08-30T21:38:17.305Z,2.50
2022-08-30T21:40:44.551Z,2.67
2022-08-30T21:43:11.850Z,2.42
2022-08-30T21:45:42.640Z,5.25
2022-08-30T21:48:10.843Z,2.78
2022-08-30T21:50:43.728Z,4.07
2022-08-30T21:53:10.774Z,2.30
2022-08-30T21:55:38.812Z,2.78
2022-08-30T21:58:06.415Z,4.15
2022-08-30T22:00:33.567Z,3.75
2022-08-30T22:03:00.464Z,8.50
2022-08-30T22:05:27.322Z,4.70
2022-08-30T22:07:54.116Z,4.30
2022-08-30T22:10:21.178Z,2.85
2022-08-30T22:12:48.451Z,2.78
2022-08-30T22:15:15.329Z,3.95
2022-08-30T22:17:43.476Z,3.00
2022-08-30T22:20:10.585Z,3.50
2022-08-30T22:22:37.943Z,2.90
2022-08-30T22:25:05.076Z,2.40
2022-08-30T22:27:32.007Z,1.90
2022-08-30T22:29:58.948Z,2.95
2022-08-30T22:32:25.732Z,5.22
2022-08-30T22:34:52.568Z,2.08
2022-08-30T22:37:19.339Z,2.92
2022-08-30T22:39:46.189Z,2.15
2022-08-30T22:42:13.331Z,3.13
2022-08-30T22:44:40.163Z,2.35
2022-08-30T22:47:08.086Z,2.95
2022-08-30T22:49:34.921Z,3.70
2022-08-30T22:52:01.798Z,2.80
2022-08-30T22:54:28.631Z,2.13
2022-08-30T22:56:55.389Z,1.98
2022-08-30T22:59:22.572Z,2.42
2022-08-30T23:01:58.661Z,1.58
2022-08-30T23:04:25.838Z,1.77
2022-08-30T23:06:52.731Z,1.58
2022-08-30T23:09:19.575Z,3.28
2022-08-30T23:11:46.488Z,1.48
2022-08-30T23:14:13.410Z,1.75
2022-08-30T23:16:40.375Z,2.60
2022-08-30T23:19:07.212Z,2.08
2022-08-30T23:21:34.062Z,1.33
2022-08-30T23:24:19.286Z,1.77
2022-08-30T23:27:05.276Z,1.50
2022-08-30T23:29:51.195Z,1.95
2022-08-30T23:32:36.890Z,2.95
2022-08-30T23:35:29.389Z,1.30
2022-08-30T23:38:16.517Z,3.30
2022-08-30T23:41:01.950Z,1.80
2022-08-30T23:43:47.390Z,1.45
2022-08-30T23:46:33.089Z,2.08
2022-08-30T23:49:18.523Z,2.42
2022-08-30T23:52:04.091Z,1.30
2022-08-30T23:54:49.619Z,1.00
2022-08-30T23:57:35.170Z,2.05
